Saint-Roch-Des-Aulnaies, Canada
Current Conditions -  °F | °C
As of 12:00 PM on Friday 24 Oct 2014 (Local Time) from CYQB Reporting Station
Broken Clouds Broken Clouds  
Wind Chill:   Ceiling: 8200
Heat Index:   Visibility: 30mi
Dew Point:   Wind: 6mph
Humidity: 62%   Direction: 40°NE
Pressure: 29.86"   Gusts: NA
Location:  47.32°N, 70.18°W
Report Text: CYQB 241600Z 04005KT 30SM BKN082 BKN100 08/01 A2986 RMK AC5AC2 SLP114
Loading
Personal Weather Stations






























Interactive Weather Map
Tropical Storm Tracking
New forecast layout! Learn more

10-Day Weather Forecast

Advertisements
Track Severe Weather on mobile